createdAt,value
2023-03-22T00:04:32.662Z,71.44
2023-03-22T00:09:34.520Z,71.61
2023-03-22T00:14:36.261Z,71.89
2023-03-22T00:19:38.021Z,71.72
2023-03-22T00:24:39.745Z,71.66
2023-03-22T00:29:41.731Z,72.00
2023-03-22T00:34:44.259Z,72.01
2023-03-22T00:39:46.048Z,71.80
2023-03-22T00:44:47.808Z,72.01
2023-03-22T00:49:49.671Z,72.30
2023-03-22T00:54:51.527Z,72.23
2023-03-22T00:59:54.044Z,72.50
2023-03-22T01:04:56.608Z,72.69
2023-03-22T01:09:58.829Z,72.82
2023-03-22T01:15:00.464Z,72.54
2023-03-22T01:20:02.503Z,72.66
2023-03-22T01:25:04.835Z,72.56
2023-03-22T01:30:07.251Z,72.69
2023-03-22T01:35:10.233Z,72.51
2023-03-22T01:40:14.690Z,72.43
2023-03-22T01:45:19.167Z,73.12
2023-03-22T01:50:21.943Z,72.87
2023-03-22T01:55:26.102Z,73.09
2023-03-22T02:00:40.921Z,73.35
2023-03-22T02:06:06.205Z,73.58
2023-03-22T02:11:14.695Z,73.42
2023-03-22T02:16:36.317Z,73.82
2023-03-22T02:22:30.865Z,73.96
2023-03-22T02:28:05.950Z,74.17
2023-03-22T02:33:23.285Z,74.46
2023-03-22T02:38:53.940Z,73.86
2023-03-22T02:44:13.293Z,74.16
2023-03-22T02:49:28.296Z,74.20
2023-03-22T02:54:47.461Z,74.37
2023-03-22T02:59:51.694Z,74.63
2023-03-22T03:04:55.327Z,74.81
2023-03-22T03:10:00.068Z,74.69
2023-03-22T03:15:01.824Z,74.71
2023-03-22T03:20:42.521Z,74.44
2023-03-22T03:26:15.245Z,74.10
2023-03-22T03:31:47.560Z,74.05
2023-03-22T03:36:57.943Z,74.06
2023-03-22T03:42:02.546Z,73.99
2023-03-22T03:47:07.647Z,73.96
2023-03-22T03:52:09.441Z,74.11
2023-03-22T03:57:12.030Z,74.33
2023-03-22T04:02:13.836Z,74.08
2023-03-22T04:07:15.680Z,74.29
2023-03-22T04:12:17.464Z,74.35
2023-03-22T04:17:34.147Z,74.35
2023-03-22T04:22:38.309Z,74.46
2023-03-22T04:27:42.088Z,74.38
2023-03-22T04:32:47.594Z,74.77
2023-03-22T04:37:51.597Z,74.87
2023-03-22T04:42:57.551Z,75.12
2023-03-22T04:48:17.556Z,75.40
2023-03-22T04:53:19.689Z,75.22
2023-03-22T04:58:24.210Z,75.14
2023-03-22T05:03:26.118Z,74.88
2023-03-22T05:08:30.681Z,74.96
2023-03-22T05:13:32.598Z,74.71
2023-03-22T05:18:34.514Z,74.68
2023-03-22T05:23:36.312Z,74.85
2023-03-22T05:28:39.509Z,75.14
2023-03-22T05:33:46.683Z,75.10
2023-03-22T05:38:51.281Z,75.09
2023-03-22T05:43:53.507Z,75.45
2023-03-22T05:48:55.865Z,76.14
2023-03-22T05:53:57.844Z,75.88
2023-03-22T05:59:07.196Z,76.17
2023-03-22T06:04:09.946Z,75.38
2023-03-22T06:09:33.354Z,75.96
2023-03-22T06:14:36.573Z,75.83
2023-03-22T06:19:54.886Z,75.80
2023-03-22T06:24:57.025Z,76.17
2023-03-22T06:30:09.779Z,76.11
2023-03-22T06:35:27.833Z,75.58
2023-03-22T06:40:30.059Z,75.11
2023-03-22T06:45:33.523Z,74.97
2023-03-22T06:50:40.290Z,74.79
2023-03-22T06:55:47.150Z,74.30
2023-03-22T07:00:56.176Z,73.81
2023-03-22T07:06:04.425Z,73.75
2023-03-22T07:11:08.473Z,73.13
2023-03-22T07:16:11.386Z,72.44
2023-03-22T07:21:21.878Z,72.72
2023-03-22T07:26:30.554Z,71.99
2023-03-22T07:31:36.460Z,70.50
2023-03-22T07:36:45.711Z,70.21
2023-03-22T07:41:48.369Z,69.67
2023-03-22T07:47:10.589Z,68.73
2023-03-22T07:52:23.863Z,68.66
2023-03-22T07:57:25.725Z,68.52
2023-03-22T08:02:31.130Z,68.23
2023-03-22T08:07:34.833Z,68.52
2023-03-22T08:12:36.644Z,68.21
2023-03-22T08:17:49.902Z,66.73
2023-03-22T08:23:04.378Z,66.38
2023-03-22T08:28:29.213Z,66.01
2023-03-22T08:33:33.547Z,64.91
2023-03-22T08:38:35.767Z,64.31
2023-03-22T08:43:40.277Z,63.78
2023-03-22T08:48:42.324Z,63.52
2023-03-22T08:53:53.857Z,60.85
2023-03-22T08:59:34.271Z,61.71
2023-03-22T09:04:54.888Z,59.58
2023-03-22T09:09:57.002Z,59.65
2023-03-22T09:15:00.050Z,58.91
2023-03-22T09:20:12.366Z,60.30
2023-03-22T09:25:16.525Z,59.24
2023-03-22T09:30:22.156Z,58.79
2023-03-22T09:35:24.016Z,57.20
2023-03-22T09:40:34.152Z,56.52
2023-03-22T09:45:48.285Z,57.48
2023-03-22T09:50:53.348Z,57.39
2023-03-22T09:56:01.406Z,54.38
2023-03-22T10:01:12.117Z,54.68
2023-03-22T10:06:43.521Z,53.50
2023-03-22T10:12:07.184Z,53.45
2023-03-22T10:17:15.936Z,52.53
2023-03-22T10:22:22.514Z,52.83
2023-03-22T10:27:27.270Z,51.17
2023-03-22T10:32:57.951Z,51.88
2023-03-22T10:38:04.636Z,50.64
2023-03-22T10:43:40.702Z,51.02
2023-03-22T10:48:45.612Z,50.21
2023-03-22T10:53:51.648Z,49.21
2023-03-22T10:58:55.529Z,49.73
2023-03-22T11:04:10.962Z,48.29
2023-03-22T11:09:18.160Z,48.26
2023-03-22T11:14:39.979Z,48.39
2023-03-22T11:20:01.415Z,48.14
2023-03-22T11:25:13.644Z,47.52
2023-03-22T11:30:25.229Z,47.49
2023-03-22T11:35:29.474Z,45.81
2023-03-22T11:40:36.777Z,46.31
2023-03-22T11:45:43.225Z,47.62
2023-03-22T11:50:46.412Z,46.27
2023-03-22T11:55:51.355Z,45.68
2023-03-22T12:00:58.736Z,45.25
2023-03-22T12:06:05.748Z,44.52
2023-03-22T12:11:12.198Z,45.04
2023-03-22T12:16:17.670Z,44.79
2023-03-22T12:21:19.680Z,44.94
2023-03-22T12:26:26.950Z,43.67
2023-03-22T12:31:37.578Z,44.04
2023-03-22T12:36:56.098Z,44.23
2023-03-22T12:42:04.292Z,44.69
2023-03-22T12:47:15.134Z,44.66
2023-03-22T12:52:23.836Z,43.92
2023-03-22T12:57:26.759Z,44.86
2023-03-22T13:02:33.090Z,42.91
2023-03-22T13:07:48.439Z,43.41
2023-03-22T13:13:15.535Z,43.80
2023-03-22T13:18:35.806Z,44.18
2023-03-22T13:23:53.639Z,44.51
2023-03-22T13:29:00.982Z,44.10
2023-03-22T13:34:04.290Z,44.94
2023-03-22T13:39:12.576Z,44.84
2023-03-22T13:44:28.467Z,44.55
2023-03-22T13:49:44.692Z,43.87
2023-03-22T13:54:49.681Z,44.43
2023-03-22T14:00:14.351Z,44.26
2023-03-22T14:05:23.799Z,44.00
2023-03-22T14:10:45.293Z,44.38
2023-03-22T14:15:51.776Z,45.49
2023-03-22T14:20:59.091Z,45.42
